Latest Weather Observations for Laverton

IDV60801

Issued at 7:52 pm EST Monday 4 May 2026 (issued every 10 minutes, with the page automatically refreshed every 10 minutes)

About weather observations | Map of weather stations | Latest weather observations for VIC | Other Formats
Station Details ID: 087031 Name: LAVERTON RAAF Lat: -37.86 Lon: 144.76 Height: 20.1 m
Data from the previous 72 hours. | See also: Recent months at Laverton
Date/Time
EST
Temp
°C
App
Temp
°C
Dew
Point
°C
Rel
Hum
%
Delta-T
°C
Wind Press
QNH
hPa
Press
MSL
hPa
Rain since
9am
mm
Dir  Spd
km/h
Gust
km/h
Spd
kts
Gust
kts
04/07:30pm 15.0 11.5 10.2 73 2.5 NNW 19 24 10 13 1011.1 1011.2 0.2
04/07:00pm 15.3 11.3 10.3 72 2.6 NNW 22 33 12 18 1010.8 1010.9 0.2
04/06:30pm 15.3 11.7 10.5 73 2.5 N 20 32 11 17 1010.4 1010.5 0.2
04/06:00pm 15.0 13.0 11.6 80 1.8 N 13 24 7 13 1010.0 1010.0 0.2
04/05:30pm 15.7 11.6 11.5 76 2.3 N 24 39 13 21 1009.6 1009.6 0.2
04/05:00pm 15.4 11.9 12.2 81 1.7 N 22 33 12 18 1009.4 1009.4 0.2
04/04:30pm 16.4 12.0 10.5 68 3.1 N 24 37 13 20 1009.2 1009.2 0.0
04/04:00pm 17.7 13.5 9.6 59 4.3 N 22 37 12 20 1009.0 1009.0 0.0
04/03:41pm 18.1 12.5 8.9 55 4.8 N 28 48 15 26 1008.9 1008.9 0.0
04/03:30pm 18.0 12.5 9.1 56 4.6 N 28 43 15 23 1009.1 1009.1 0.0
04/03:00pm 17.9 13.2 9.3 57 4.5 N 24 43 13 23 1009.0 1009.0 0.0
04/02:30pm 17.9 12.3 8.7 55 4.8 N 28 44 15 24 1008.8 1008.8 0.0
04/02:06pm 17.9 11.4 8.2 53 5.0 N 32 50 17 27 1008.8 1008.8 0.0
04/02:00pm 17.7 10.6 8.0 53 5.0 N 35 48 19 26 1008.9 1008.9 0.0
04/01:30pm 19.2 12.5 8.2 49 5.7 NNW 33 52 18 28 1008.9 1008.9 0.0
04/01:00pm 18.5 11.7 7.9 50 5.4 NNW 33 52 18 28 1009.1 1009.1 0.0
04/12:39pm 18.1 12.3 7.8 51 5.2 N 28 46 15 25 1009.4 1009.4 0.0
04/12:30pm 18.1 10.9 7.8 51 5.2 N 35 50 19 27 1009.5 1009.5 0.0
04/12:02pm 18.1 12.0 8.1 52 5.1 N 30 48 16 26 1010.0 1010.0 0.0
04/12:00pm 17.7 11.0 7.4 51 5.2 N 32 48 17 26 1010.0 1010.0 0.0
04/11:30am 18.0 11.3 7.4 50 5.3 NNW 32 52 17 28 1010.5 1010.6 0.0
04/11:16am 17.5 10.9 7.8 53 4.9 NNW 32 56 17 30 1010.4 1010.5 0.0
04/11:00am 17.7 12.4 8.3 54 4.8 NNW 26 44 14 24 1010.6 1010.7 0.0
04/10:43am 17.7 12.1 8.6 55 4.7 NNW 28 46 15 25 1010.6 1010.7 0.0
04/10:30am 17.5 13.0 8.4 55 4.7 N 22 32 12 17 1010.6 1010.7 0.0
04/10:00am 16.7 12.3 9.1 61 3.9 N 22 35 12 19 1010.7 1010.8 0.0
04/09:30am 15.8 11.4 9.0 64 3.5 N 22 37 12 20 1010.9 1011.0 0.0
04/09:00am 14.8 9.7 9.2 69 2.9 N 26 43 14 23 1010.9 1011.0 3.8
04/08:30am 14.5 10.1 8.9 69 2.8 N 22 33 12 18 1011.0 1011.1 3.8
04/08:00am 13.8 9.3 8.6 71 2.6 N 22 35 12 19 1010.9 1011.0 3.8
04/07:30am 13.1 9.3 9.2 77 2.0 N 19 26 10 14 1011.0 1011.1 3.8
04/07:00am 12.9 9.2 9.4 79 1.8 N 19 24 10 13 1010.8 1010.9 3.8
04/06:30am 13.0 9.2 9.8 81 1.6 N 20 26 11 14 1010.6 1010.7 3.8
04/06:00am 12.9 9.0 9.5 80 1.7 N 20 30 11 16 1010.6 1010.7 3.8
04/05:30am 12.9 9.1 9.7 81 1.6 N 20 33 11 18 1010.7 1010.8 3.8
04/05:00am 12.7 9.5 9.9 83 1.4 N 17 24 9 13 1010.8 1010.9 3.8
04/04:30am 12.8 9.3 10.3 85 1.3 NNE 19 28 10 15 1011.0 1011.1 3.8
04/04:00am 12.8 9.4 10.7 87 1.1 NNE 19 28 10 15 1011.2 1011.3 3.8
04/03:30am 12.9 9.6 10.8 87 1.1 NNE 19 26 10 14 1011.4 1011.5 3.8
04/03:00am 12.9 9.4 11.0 88 1.0 NNE 20 28 11 15 1011.7 1011.7 3.8
04/02:30am 13.1 9.9 11.2 88 1.0 NNE 19 26 10 14 1011.9 1011.9 3.8
04/02:00am 13.1 11.0 11.0 87 1.1 NNE 13 17 7 9 1012.0 1012.0 3.8
04/01:30am 13.4 10.6 11.3 87 1.1 N 17 24 9 13 1011.9 1011.9 3.8
04/01:00am 13.3 10.5 11.4 88 1.0 NNE 17 22 9 12 1012.1 1012.1 3.8
04/12:30am 13.8 10.9 11.1 84 1.4 N 17 24 9 13 1012.0 1012.0 3.8
04/12:00am 13.9 11.0 11.1 83 1.5 N 17 22 9 12 1012.1 1012.1 3.8
 
Date/Time
EST
Temp
°C
App
Temp
°C
Dew
Point
°C
Rel
Hum
%
Delta-T
°C
Wind Press
QNH
hPa
Press
MSL
hPa
Rain since
9am
mm
Dir  Spd
km/h
Gust
km/h
Spd
kts
Gust
kts
03/11:30pm 14.2 11.4 11.2 82 1.6 NNE 17 30 9 16 1012.4 1012.4 3.8
03/11:00pm 14.2 12.2 11.4 83 1.5 NNE 13 17 7 9 1012.6 1012.6 3.8
03/10:30pm 14.5 12.0 11.1 80 1.8 N 15 24 8 13 1012.6 1012.6 3.8
03/10:00pm 14.9 12.4 10.9 77 2.1 NNE 15 20 8 11 1013.1 1013.1 3.8
03/09:30pm 14.8 12.6 10.8 77 2.1 NNE 13 17 7 9 1013.3 1013.3 3.8
03/09:00pm 15.0 12.7 10.6 75 2.3 NNE 13 17 7 9 1012.7 1012.7 3.8
03/08:30pm 15.1 12.8 10.3 73 2.5 NNE 13 17 7 9 1012.9 1012.9 3.8
03/08:00pm 15.3 12.9 9.9 70 2.8 NNE 13 17 7 9 1012.6 1012.6 3.8
03/07:30pm 15.6 13.1 9.7 68 3.1 N 13 19 7 10 1012.4 1012.4 3.8
03/07:00pm 15.2 13.0 9.3 68 3.0 NNE 11 13 6 7 1011.9 1011.9 3.8
03/06:30pm 15.8 13.5 9.0 64 3.5 N 11 13 6 7 1011.3 1011.4 3.8
03/06:00pm 16.4 14.1 8.9 61 3.9 N 11 17 6 9 1011.1 1011.2 3.8
03/05:30pm 17.1 14.7 8.5 57 4.4 NNW 11 17 6 9 1011.0 1011.1 3.8
03/05:00pm 18.0 14.0 8.3 53 5.0 NW 19 26 10 14 1010.6 1010.7 3.8
03/04:30pm 18.6 13.3 8.3 51 5.3 WNW 26 35 14 19 1010.5 1010.6 3.8
03/04:00pm 19.8 14.6 7.2 44 6.4 WNW 24 35 13 19 1010.4 1010.5 3.8
03/03:30pm 20.4 15.7 6.0 39 7.2 NW 20 30 11 16 1010.3 1010.4 3.8
03/03:00pm 19.3 17.1 10.8 58 4.6 NNW 13 20 7 11 1010.2 1010.3 3.8
03/02:30pm 19.2 16.7 12.2 64 3.9 NNW 17 26 9 14 1010.0 1010.0 3.8
03/02:00pm 18.6 16.7 13.0 70 3.2 NW 15 24 8 13 1010.2 1010.3 3.8
03/01:30pm 18.4 16.5 14.3 77 2.4 NW 17 24 9 13 1010.2 1010.3 3.8
03/01:00pm 18.5 16.0 13.6 73 2.8 NW 19 30 10 16 1010.3 1010.4 3.8
03/12:30pm 19.4 16.8 15.9 80 2.1 N 24 37 13 20 1010.2 1010.3 3.8
03/12:04pm 19.8 16.5 16.1 79 2.2 N 28 52 15 28 1010.0 1010.0 3.8
03/12:00pm 20.0 17.1 16.2 79 2.3 N 26 43 14 23 1010.0 1010.0 3.8
03/11:30am 18.5 16.5 16.5 88 1.2 N 22 39 12 21 1009.9 1009.9 3.8
03/11:00am 18.2 15.2 16.7 91 0.9 N 28 46 15 25 1010.5 1010.6 3.8
03/10:30am 17.8 14.7 17.6 99 0.1 NNE 30 50 16 27 1009.8 1009.8 3.8
03/10:00am 17.7 13.7 17.5 99 0.1 NNE 35 57 19 31 1009.9 1009.9 3.0
03/09:52am 17.9 14.4 17.4 97 0.3 NNE 32 57 17 31 1010.2 1010.3 2.0
03/09:30am 18.6 16.0 16.0 85 1.5 N 24 37 13 20 1011.4 1011.5 0.2
03/09:00am 20.0 15.0 14.1 69 3.4 NNE 33 56 18 30 1010.9 1011.0 0.0
03/08:53am 20.1 15.5 14.5 70 3.3 NNE 32 50 17 27 1011.4 1011.5 0.0
03/08:30am 19.9 15.6 14.3 70 3.2 NNE 30 44 16 24 1010.3 1010.4 0.0
03/08:16am 19.2 15.3 14.5 74 2.7 NNE 28 48 15 26 1010.0 1010.0 0.0
03/08:00am 18.6 15.1 14.5 77 2.4 NNE 26 39 14 21 1010.6 1010.7 0.0
03/07:30am 18.4 14.5 14.3 77 2.4 NNE 28 41 15 22 1011.3 1011.4 0.0
03/07:06am 18.4 14.4 14.1 76 2.5 NNE 28 46 15 25 1011.0 1011.1 0.0
03/07:00am 18.5 13.7 14.0 75 2.6 N 32 46 17 25 1011.1 1011.2 0.0
03/06:39am 18.6 13.7 13.7 73 2.8 NNE 32 54 17 29 1010.7 1010.8 0.0
03/06:30am 18.6 13.7 13.7 73 2.8 NNE 32 48 17 26 1011.1 1011.2 0.0
03/06:13am 18.6 13.9 13.2 71 3.1 N 30 48 16 26 1011.7 1011.7 0.0
03/06:00am 18.9 14.2 13.3 70 3.2 N 30 46 16 25 1012.1 1012.1 0.0
03/05:30am 18.8 15.2 13.0 69 3.3 N 24 44 13 24 1011.5 1011.6 0.0
03/05:00am 18.6 15.4 13.0 70 3.2 NNE 22 32 12 17 1011.2 1011.3 0.0
03/04:30am 19.3 14.7 12.3 64 3.9 NNE 28 48 15 26 1010.7 1010.8 0.0
03/04:00am 20.1 14.9 11.6 58 4.7 N 30 46 16 25 1011.3 1011.4 0.0
03/03:56am 20.2 15.4 11.7 58 4.7 N 28 46 15 25 1011.3 1011.4 0.0
03/03:30am 20.0 16.3 11.5 58 4.7 N 22 35 12 19 1012.0 1012.0 0.0
03/03:00am 20.0 16.7 11.5 58 4.7 N 20 32 11 17 1012.7 1012.7 0.0
03/02:30am 20.3 17.1 11.2 56 5.0 N 19 30 10 16 1012.4 1012.4 0.0
03/02:00am 20.1 18.0 11.3 57 4.8 N 13 22 7 12 1012.7 1012.7 0.0
03/01:30am 20.1 17.7 11.3 57 4.8 N 15 20 8 11 1013.0 1013.0 0.0
03/01:00am 20.1 18.0 11.1 56 4.9 N 13 24 7 13 1013.2 1013.2 0.0
03/12:30am 20.0 17.6 11.5 58 4.7 N 15 20 8 11 1013.4 1013.4 0.0
03/12:00am 20.2 17.0 11.4 57 4.9 N 19 28 10 15 1013.5 1013.5 0.0
 
Date/Time
EST
Temp
°C
App
Temp
°C
Dew
Point
°C
Rel
Hum
%
Delta-T
°C
Wind Press
QNH
hPa
Press
MSL
hPa
Rain since
9am
mm
Dir  Spd
km/h
Gust
km/h
Spd
kts
Gust
kts
02/11:30pm 20.9 19.1 10.7 52 5.6 NNW 11 17 6 9 1013.9 1013.9 0.0
02/11:00pm 21.4 19.4 10.3 49 6.0 N 11 19 6 10 1014.1 1014.1 0.0
02/10:30pm 21.3 18.6 10.5 50 5.9 N 15 22 8 12 1014.3 1014.3 0.0
02/10:00pm 22.0 19.1 8.2 41 7.2 N 13 20 7 11 1014.5 1014.5 0.0
02/09:30pm 22.1 19.0 7.1 38 7.7 N 13 24 7 13 1014.5 1014.5 0.0
02/09:00pm 21.4 18.9 8.0 42 7.0 N 11 17 6 9 1014.6 1014.6 0.0
02/08:30pm 22.0 19.5 8.2 41 7.2 N 11 15 6 8 1014.4 1014.4 0.0
02/08:00pm 22.2 19.7 8.3 41 7.3 N 11 17 6 9 1014.4 1014.4 0.0
02/07:30pm 22.1 20.1 8.6 42 7.1 N 9 13 5 7 1014.7 1014.7 0.0
02/07:00pm 22.9 20.5 8.6 40 7.6 N 11 19 6 10 1014.7 1014.7 0.0
02/06:30pm 23.5 19.9 8.4 38 8.0 N 17 26 9 14 1014.5 1014.5 0.0
02/06:00pm 23.7 20.1 8.2 37 8.2 N 17 26 9 14 1014.4 1014.4 0.0
02/05:30pm 24.0 19.5 8.4 37 8.3 N 22 35 12 19 1014.3 1014.3 0.0
02/05:00pm 24.3 19.4 8.3 36 8.5 N 24 37 13 20 1014.0 1014.0 0.0
02/04:30pm 24.5 19.6 8.5 36 8.6 N 24 46 13 25 1013.9 1013.9 0.0
02/04:21pm 24.5 18.8 8.5 36 8.6 N 28 46 15 25 1013.8 1013.8 0.0
02/04:00pm 25.0 19.8 8.9 36 8.7 NNE 26 39 14 21 1013.9 1013.9 0.0
02/03:30pm 24.2 18.9 8.6 37 8.4 NNE 26 41 14 22 1014.2 1014.2 0.0
02/03:00pm 24.5 19.2 8.5 36 8.6 NNE 26 39 14 21 1014.4 1014.4 0.0
02/02:30pm 24.2 18.9 8.6 37 8.4 NNE 26 37 14 20 1014.6 1014.6 0.0
02/02:00pm 23.6 18.7 8.5 38 8.0 N 24 37 13 20 1015.0 1015.0 0.0
02/01:30pm 22.9 18.1 9.0 41 7.4 NNE 24 35 13 19 1015.6 1015.6 0.0
02/01:00pm 23.1 18.1 9.5 42 7.4 NNE 26 39 14 21 1016.1 1016.1 0.0
02/12:30pm 22.3 18.0 9.5 44 6.9 NNE 22 37 12 20 1016.9 1016.9 0.0
02/12:00pm 21.4 16.4 9.6 47 6.3 NNE 26 39 14 21 1017.5 1017.5 0.0
02/11:30am 21.1 16.8 9.4 47 6.3 NNE 22 33 12 18 1018.0 1018.0 0.0
02/11:00am 20.9 16.6 9.5 48 6.1 N 22 33 12 18 1018.5 1018.5 0.0
02/10:30am 20.6 16.6 9.2 48 6.1 NNE 20 32 11 17 1018.7 1018.7 0.0
02/10:00am 20.7 15.5 9.0 47 6.2 NNE 26 37 14 20 1018.9 1018.9 0.0
02/09:30am 20.2 15.9 9.2 49 5.8 NNE 22 37 12 20 1019.1 1019.1 0.0
02/09:00am 19.9 15.6 9.2 50 5.6 NNE 22 33 12 18 1019.3 1019.3 0.0
02/08:30am 19.6 15.3 9.2 51 5.5 N 22 37 12 20 1019.2 1019.2 0.0
02/08:00am 19.6 15.2 8.9 50 5.6 N 22 35 12 19 1019.1 1019.1 0.0
02/07:30am 19.5 14.7 8.8 50 5.6 N 24 35 13 19 1018.8 1018.8 0.0
02/07:00am 19.5 15.1 8.8 50 5.6 NNE 22 35 12 19 1018.5 1018.5 0.0
02/06:30am 19.7 15.6 8.7 49 5.8 NNE 20 33 11 18 1018.5 1018.5 0.0
02/06:00am 19.9 15.0 8.6 48 5.9 N 24 39 13 21 1018.4 1018.4 0.0
02/05:30am 19.8 15.0 8.8 49 5.8 NNE 24 39 13 21 1018.5 1018.5 0.0
02/05:00am 19.5 15.6 8.8 50 5.6 NNE 19 28 10 15 1018.5 1018.5 0.0
02/04:30am 19.5 15.7 9.1 51 5.5 N 19 28 10 15 1018.8 1018.8 0.0
02/04:00am 19.6 16.6 9.2 51 5.5 N 15 24 8 13 1018.8 1018.8 0.0
02/03:30am 18.3 15.7 9.4 56 4.7 NNE 13 19 7 10 1018.9 1018.9 0.0
02/03:00am 18.2 15.6 9.5 57 4.6 NNE 13 17 7 9 1019.1 1019.1 0.0
02/02:30am 18.2 15.3 9.8 58 4.4 NNE 15 19 8 10 1019.3 1019.3 0.0
02/02:00am 17.1 14.9 9.5 61 4.0 NNE 11 17 6 9 1019.8 1019.8 0.0
02/01:30am 17.7 15.6 9.6 59 4.3 NNE 11 15 6 8 1019.9 1019.9 0.0
02/01:00am 18.0 15.6 9.9 59 4.3 NNE 13 17 7 9 1020.2 1020.2 0.0
02/12:30am 17.6 15.6 10.0 61 4.0 NNE 11 17 6 9 1020.4 1020.4 0.0
02/12:00am 16.5 14.8 9.7 64 3.5 NNE 9 11 5 6 1020.7 1020.7 0.0
 
Date/Time
EST
Temp
°C
App
Temp
°C
Dew
Point
°C
Rel
Hum
%
Delta-T
°C
Wind Press
QNH
hPa
Press
MSL
hPa
Rain since
9am
mm
Dir  Spd
km/h
Gust
km/h
Spd
kts
Gust
kts
01/11:30pm 17.2 15.5 9.9 62 3.8 NNE 9 11 5 6 1021.0 1021.0 0.0
01/11:00pm 17.6 15.9 9.8 60 4.1 NNE 9 11 5 6 1021.3 1021.3 0.0
01/10:30pm 17.9 16.1 9.5 58 4.4 NNE 9 9 5 5 1021.6 1021.6 0.0
01/10:00pm 19.2 17.1 9.9 55 4.9 NNE 11 15 6 8 1021.7 1021.7 0.0
01/09:30pm 20.1 17.7 10.2 53 5.3 NNE 13 17 7 9 1021.8 1021.8 0.0
01/09:00pm 20.5 18.1 10.0 51 5.6 NNE 13 17 7 9 1021.7 1021.7 0.0
01/08:30pm 20.6 18.9 9.8 50 5.8 NNE 9 11 5 6 1021.7 1021.7 0.0
01/08:00pm 21.4 19.3 9.6 47 6.3 NNE 11 15 6 8 1021.6 1021.6 0.0

Other formats

Comma delimited format used in spreadsheet applications
http://www.bom.gov.au/fwo/IDV60801/IDV60801.94865.axf

JavaScript Object Notation format (JSON) in row-major order
http://www.bom.gov.au/fwo/IDV60801/IDV60801.94865.json

Data quality

Most of these data are generated automatically and are frequently updated. Quality checks on data are not normally performed. It is possible for incorrect values to appear. Refer to information at About Latest Weather Observations and please check the disclaimer before using these data.